createdAt,value
2022-08-23T00:03:38.154Z,100075.60
2022-08-23T00:07:46.539Z,100073.18
2022-08-23T00:11:56.133Z,100075.60
2022-08-23T00:16:04.983Z,100078.60
2022-08-23T00:20:15.975Z,100070.76
2022-08-23T00:24:25.744Z,100064.55
2022-08-23T00:28:33.976Z,100069.45
2022-08-23T00:32:42.538Z,100076.99
2022-08-23T00:36:49.810Z,100079.92
2022-08-23T00:41:00.228Z,100080.58
2022-08-23T00:45:27.471Z,100077.00
2022-08-23T00:49:39.387Z,100069.79
2022-08-23T00:53:54.735Z,100067.22
2022-08-23T00:58:02.812Z,100067.91
2022-08-23T01:02:11.719Z,100069.91
2022-08-23T01:06:23.597Z,100063.03
2022-08-23T01:10:34.236Z,100059.70
2022-08-23T01:14:45.048Z,100049.81
2022-08-23T01:18:53.058Z,100049.83
2022-08-23T01:23:03.905Z,100055.00
2022-08-23T01:27:14.583Z,100054.46
2022-08-23T01:31:23.113Z,100049.32
2022-08-23T01:35:38.145Z,100047.98
2022-08-23T01:39:45.609Z,100047.69
2022-08-23T01:43:54.023Z,100059.23
2022-08-23T01:48:02.180Z,100072.40
2022-08-23T01:52:10.182Z,100082.40
2022-08-23T01:56:38.300Z,100100.04
2022-08-23T02:00:58.911Z,100113.00
2022-08-23T02:05:08.735Z,100111.54
2022-08-23T02:09:18.225Z,100101.75
2022-08-23T02:13:26.440Z,100081.67
2022-08-23T02:17:35.162Z,100064.04
2022-08-23T02:21:43.708Z,100054.49
2022-08-23T02:25:52.925Z,100061.18
2022-08-23T02:30:02.056Z,100068.39
2022-08-23T02:34:10.462Z,100072.73
2022-08-23T02:38:19.207Z,100074.39
2022-08-23T02:42:29.512Z,100079.22
2022-08-23T02:46:37.493Z,100079.36
2022-08-23T02:50:45.078Z,100081.68
2022-08-23T02:54:53.282Z,100081.83
2022-08-23T02:59:06.796Z,100073.71
2022-08-23T03:03:14.248Z,100077.42
2022-08-23T03:07:21.748Z,100085.29
2022-08-23T03:11:30.044Z,100095.13
2022-08-23T03:15:37.883Z,100095.11
2022-08-23T03:19:45.221Z,100097.84
2022-08-23T03:23:52.816Z,100098.88
2022-08-23T03:28:03.552Z,100089.52
2022-08-23T03:32:15.425Z,100084.84
2022-08-23T03:36:28.122Z,100090.30
2022-08-23T03:40:37.500Z,100091.01
2022-08-23T03:44:47.627Z,100084.98
2022-08-23T03:48:56.836Z,100085.69
2022-08-23T03:53:05.272Z,100085.30
2022-08-23T03:57:13.733Z,100091.57
2022-08-23T04:01:25.234Z,100090.61
2022-08-23T04:05:36.583Z,100084.30
2022-08-23T04:09:44.553Z,100081.75
2022-08-23T04:13:52.656Z,100085.90
2022-08-23T04:18:02.604Z,100079.24
2022-08-23T04:22:14.803Z,100072.21
2022-08-23T04:26:25.190Z,100080.59
2022-08-23T04:30:37.998Z,100090.77
2022-08-23T04:34:51.534Z,100087.30
2022-08-23T04:39:00.152Z,100089.67
2022-08-23T04:43:09.066Z,100091.73
2022-08-23T04:47:17.355Z,100098.59
2022-08-23T04:51:25.153Z,100095.64
2022-08-23T04:55:34.379Z,100094.55
2022-08-23T04:59:44.792Z,100092.86
2022-08-23T05:03:56.345Z,100097.55
2022-08-23T05:08:04.001Z,100100.19
2022-08-23T05:12:12.106Z,100108.45
2022-08-23T05:16:19.908Z,100131.35
2022-08-23T05:20:28.353Z,100152.77
2022-08-23T05:24:36.919Z,100162.86
2022-08-23T05:28:48.537Z,100148.20
2022-08-23T05:32:56.481Z,100138.77
2022-08-23T05:37:04.914Z,100156.25
2022-08-23T05:41:12.388Z,100161.85
2022-08-23T05:45:21.898Z,100161.40
2022-08-23T05:49:30.353Z,100152.86
2022-08-23T05:53:37.629Z,100143.42
2022-08-23T05:57:45.484Z,100153.19
2022-08-23T06:01:54.106Z,100163.80
2022-08-23T06:06:03.258Z,100167.92
2022-08-23T06:10:16.058Z,100172.80
2022-08-23T06:14:24.342Z,100172.42
2022-08-23T06:18:32.168Z,100169.66
2022-08-23T06:22:40.614Z,100175.42
2022-08-23T06:26:48.601Z,100180.61
2022-08-23T06:30:59.126Z,100180.08
2022-08-23T06:35:39.420Z,100183.88
2022-08-23T06:39:37.648Z,100176.45
2022-08-23T06:43:48.786Z,100180.73
2022-08-23T06:47:56.499Z,100182.36
2022-08-23T06:52:05.794Z,100182.80
2022-08-23T06:56:14.149Z,100189.88
2022-08-23T07:00:22.781Z,100192.72
2022-08-23T07:04:32.286Z,100196.55
2022-08-23T07:08:40.216Z,100197.27
2022-08-23T07:12:49.985Z,100195.95
2022-08-23T07:17:01.569Z,100195.89
2022-08-23T07:21:09.989Z,100195.20
2022-08-23T07:25:18.225Z,100194.10
2022-08-23T07:29:26.129Z,100187.94
2022-08-23T07:33:33.566Z,100193.71
2022-08-23T07:37:46.028Z,100197.66
2022-08-23T07:41:54.240Z,100199.39
2022-08-23T07:46:04.294Z,100205.86
2022-08-23T07:50:13.880Z,100208.27
2022-08-23T07:54:23.248Z,100210.97
2022-08-23T07:58:31.270Z,100206.63
2022-08-23T08:02:40.099Z,100210.20
2022-08-23T08:07:10.529Z,100214.36
2022-08-23T08:11:20.744Z,100217.27
2022-08-23T08:15:28.364Z,100223.48
2022-08-23T08:19:36.304Z,100227.36
2022-08-23T08:23:44.172Z,100221.66
2022-08-23T08:27:51.581Z,100224.52
2022-08-23T08:31:59.564Z,100233.23
2022-08-23T08:36:10.074Z,100234.95
2022-08-23T08:40:25.898Z,100238.67
2022-08-23T08:44:39.322Z,100239.40
2022-08-23T08:48:50.320Z,100246.40
2022-08-23T08:53:03.907Z,100248.55
2022-08-23T08:57:15.205Z,100254.80
2022-08-23T09:01:26.857Z,100258.71
2022-08-23T09:05:39.965Z,100262.80
2022-08-23T09:10:11.401Z,100263.08
2022-08-23T09:14:35.658Z,100259.88
2022-08-23T09:18:43.454Z,100259.70
2022-08-23T09:22:52.839Z,100263.96
2022-08-23T09:27:01.340Z,100264.98
2022-08-23T09:31:09.312Z,100259.04
2022-08-23T09:35:20.327Z,100264.41
2022-08-23T09:39:31.792Z,100257.16
2022-08-23T09:43:48.935Z,100250.60
2022-08-23T09:47:56.671Z,100255.05
2022-08-23T09:52:21.875Z,100253.63
2022-08-23T09:56:30.902Z,100262.96
2022-08-23T10:00:40.491Z,100267.61
2022-08-23T10:04:58.498Z,100271.66
2022-08-23T10:09:07.136Z,100279.67
2022-08-23T10:13:15.077Z,100279.31
2022-08-23T10:17:34.301Z,100279.37
2022-08-23T10:21:47.388Z,100284.29
2022-08-23T10:25:59.282Z,100287.15
2022-08-23T10:30:10.841Z,100286.89
2022-08-23T10:34:29.840Z,100281.27
2022-08-23T10:38:49.679Z,100280.55
2022-08-23T10:43:09.872Z,100284.55
2022-08-23T10:47:27.627Z,100286.23
2022-08-23T10:51:40.372Z,100289.84
2022-08-23T10:56:08.359Z,100286.73
2022-08-23T11:00:19.900Z,100294.17
2022-08-23T11:04:31.955Z,100294.73
2022-08-23T11:08:47.834Z,100293.19
2022-08-23T11:12:59.122Z,100298.54
2022-08-23T11:17:09.421Z,100307.78
2022-08-23T11:21:45.217Z,100309.81
2022-08-23T11:25:53.414Z,100312.37
2022-08-23T11:30:01.786Z,100309.04
2022-08-23T11:34:15.907Z,100310.17
2022-08-23T11:39:05.358Z,100317.10
2022-08-23T11:43:21.468Z,100315.16
2022-08-23T11:47:40.892Z,100318.94
2022-08-23T11:51:57.141Z,100318.88
2022-08-23T11:56:21.282Z,100316.27
2022-08-23T12:00:47.427Z,100319.80
2022-08-23T12:04:56.012Z,100314.77
2022-08-23T12:09:05.538Z,100317.17
2022-08-23T12:13:35.161Z,100318.44
2022-08-23T12:18:17.415Z,100317.33
2022-08-23T12:22:32.727Z,100313.77
2022-08-23T12:26:49.956Z,100315.30
2022-08-23T12:31:00.665Z,100311.63
2022-08-23T12:35:32.179Z,100308.42
2022-08-23T12:39:43.458Z,100309.43
2022-08-23T12:44:04.123Z,100311.30
2022-08-23T12:48:18.446Z,100311.02
2022-08-23T12:52:29.967Z,100316.44
2022-08-23T12:56:38.849Z,100315.20
2022-08-23T13:00:55.635Z,100319.96
2022-08-23T13:05:13.238Z,100322.59
2022-08-23T13:09:24.576Z,100319.60
2022-08-23T13:13:32.422Z,100319.46
2022-08-23T13:17:42.463Z,100324.95
2022-08-23T13:21:54.441Z,100321.19
2022-08-23T13:26:27.749Z,100318.89
2022-08-23T13:30:37.481Z,100319.98
2022-08-23T13:34:50.017Z,100319.94
2022-08-23T13:38:59.250Z,100317.66
2022-08-23T13:43:10.316Z,100320.98
2022-08-23T13:47:27.783Z,100319.44
2022-08-23T13:51:38.740Z,100315.77
2022-08-23T13:55:51.867Z,100313.95
2022-08-23T14:00:01.599Z,100318.35
2022-08-23T14:04:16.303Z,100321.69
2022-08-23T14:08:24.270Z,100321.65
2022-08-23T14:12:33.495Z,100325.91
2022-08-23T14:16:42.461Z,100328.95
2022-08-23T14:20:51.273Z,100324.98
2022-08-23T14:24:59.255Z,100323.16
2022-08-23T14:29:07.344Z,100321.16
2022-08-23T14:33:23.271Z,100321.17
2022-08-23T14:41:58.986Z,100324.10
2022-08-23T14:46:06.680Z,100319.45
2022-08-23T14:50:16.082Z,100316.61
2022-08-23T14:54:26.059Z,100312.27
2022-08-23T14:58:35.689Z,100314.95
2022-08-23T15:02:47.889Z,100314.29
2022-08-23T15:07:17.189Z,100315.09
2022-08-23T15:15:57.399Z,100314.96
2022-08-23T15:20:06.308Z,100319.89
2022-08-23T15:24:14.485Z,100321.98
2022-08-23T15:28:24.637Z,100325.30
2022-08-23T15:32:33.244Z,100327.44
2022-08-23T15:36:44.202Z,100327.09
2022-08-23T15:40:53.019Z,100327.64
2022-08-23T15:45:02.658Z,100329.73
2022-08-23T15:49:17.467Z,100329.91
2022-08-23T15:53:26.928Z,100329.13
2022-08-23T15:57:42.244Z,100336.77
2022-08-23T16:01:50.816Z,100337.40
2022-08-23T16:05:58.728Z,100340.29
2022-08-23T16:10:08.877Z,100343.73
2022-08-23T16:14:18.309Z,100341.42
2022-08-23T16:18:28.088Z,100347.36
2022-08-23T16:22:35.727Z,100344.98
2022-08-23T16:26:47.198Z,100347.52
2022-08-23T16:30:54.803Z,100346.34
2022-08-23T16:35:03.589Z,100355.91
2022-08-23T16:39:11.855Z,100362.65
2022-08-23T16:43:19.209Z,100363.23
2022-08-23T16:47:27.127Z,100365.29
2022-08-23T16:51:34.916Z,100368.39
2022-08-23T16:55:42.782Z,100369.23
2022-08-23T16:59:51.947Z,100371.98
2022-08-23T17:03:59.951Z,100369.48
2022-08-23T17:08:08.602Z,100369.46
2022-08-23T17:12:18.046Z,100368.27
2022-08-23T17:16:27.029Z,100372.68
2022-08-23T17:20:37.589Z,100375.25
2022-08-23T17:24:45.729Z,100382.48
2022-08-23T17:28:53.572Z,100393.67
2022-08-23T17:33:01.591Z,100400.41
2022-08-23T17:37:18.668Z,100401.27
2022-08-23T17:41:27.603Z,100401.59
2022-08-23T17:45:40.582Z,100404.95
2022-08-23T17:49:49.511Z,100406.75
2022-08-23T17:53:57.401Z,100413.50
2022-08-23T17:58:05.425Z,100415.84
2022-08-23T18:02:13.384Z,100422.39
2022-08-23T18:06:21.664Z,100421.40
2022-08-23T18:10:30.170Z,100428.72
2022-08-23T18:14:38.367Z,100432.24
2022-08-23T18:18:46.489Z,100434.56
2022-08-23T18:22:54.805Z,100439.91
2022-08-23T18:27:21.594Z,100441.39
2022-08-23T18:31:29.833Z,100446.27
2022-08-23T18:35:38.258Z,100451.20
2022-08-23T18:39:46.505Z,100452.75
2022-08-23T18:43:54.369Z,100449.21
2022-08-23T18:48:03.864Z,100451.73
2022-08-23T18:52:11.527Z,100453.47
2022-08-23T18:56:21.166Z,100455.23
2022-08-23T19:00:28.656Z,100462.77
2022-08-23T19:04:36.953Z,100463.18
2022-08-23T19:08:45.355Z,100458.75
2022-08-23T19:12:54.573Z,100463.77
2022-08-23T19:17:05.019Z,100470.84
2022-08-23T19:21:18.814Z,100476.31
2022-08-23T19:25:27.302Z,100479.86
2022-08-23T19:29:41.113Z,100484.72
2022-08-23T19:33:51.152Z,100485.19
2022-08-23T19:37:59.426Z,100489.28
2022-08-23T19:42:11.788Z,100492.69
2022-08-23T19:46:20.128Z,100491.17
2022-08-23T19:50:28.480Z,100492.77
2022-08-23T19:54:37.661Z,100494.30
2022-08-23T19:58:49.790Z,100498.77
2022-08-23T20:02:57.667Z,100498.20
2022-08-23T20:07:06.440Z,100497.24
2022-08-23T20:11:14.540Z,100497.88
2022-08-23T20:15:22.419Z,100498.80
2022-08-23T20:19:30.446Z,100497.27
2022-08-23T20:23:55.551Z,100501.56
2022-08-23T20:28:07.755Z,100504.36
2022-08-23T20:32:15.661Z,100500.65
2022-08-23T20:36:23.152Z,100500.92
2022-08-23T20:40:30.648Z,100498.73
2022-08-23T20:44:40.055Z,100498.38
2022-08-23T20:48:47.769Z,100495.54
2022-08-23T20:52:55.593Z,100495.95
2022-08-23T20:57:03.596Z,100498.31
2022-08-23T21:01:12.193Z,100501.69
2022-08-23T21:05:21.179Z,100504.58
2022-08-23T21:09:29.741Z,100499.25
2022-08-23T21:13:41.806Z,100502.90
2022-08-23T21:17:50.055Z,100500.66
2022-08-23T21:21:58.639Z,100492.23
2022-08-23T21:26:07.557Z,100487.06
2022-08-23T21:30:17.432Z,100488.25
2022-08-23T21:34:25.601Z,100487.30
2022-08-23T21:38:34.216Z,100483.71
2022-08-23T21:42:43.864Z,100479.92
2022-08-23T21:46:51.840Z,100479.38
2022-08-23T21:51:01.550Z,100473.31
2022-08-23T21:55:11.620Z,100469.71
2022-08-23T21:59:22.627Z,100465.58
2022-08-23T22:03:30.631Z,100464.55
2022-08-23T22:07:40.043Z,100461.09
2022-08-23T22:11:49.138Z,100459.27
2022-08-23T22:15:57.263Z,100463.10
2022-08-23T22:20:07.546Z,100459.98
2022-08-23T22:24:16.585Z,100466.41
2022-08-23T22:28:25.155Z,100466.08
2022-08-23T22:32:37.385Z,100468.70
2022-08-23T22:36:46.259Z,100465.23
2022-08-23T22:41:00.692Z,100462.83
2022-08-23T22:45:10.846Z,100456.76
2022-08-23T22:49:18.968Z,100458.91
2022-08-23T22:53:26.687Z,100462.18
2022-08-23T22:57:34.998Z,100459.29
2022-08-23T23:01:48.312Z,100462.81
2022-08-23T23:05:57.425Z,100468.27
2022-08-23T23:10:10.224Z,100468.02
2022-08-23T23:14:20.819Z,100472.30
2022-08-23T23:18:29.641Z,100473.91
2022-08-23T23:22:37.423Z,100477.23
2022-08-23T23:26:47.788Z,100473.92
2022-08-23T23:30:57.710Z,100481.02
2022-08-23T23:35:06.748Z,100484.90
2022-08-23T23:39:15.953Z,100490.75
2022-08-23T23:43:23.521Z,100494.98
2022-08-23T23:47:32.000Z,100496.09
2022-08-23T23:51:40.560Z,100494.39
2022-08-23T23:55:48.889Z,100501.90
2022-08-23T23:59:57.560Z,100498.48
